createdAt,value
2022-08-01T00:00:08.699Z,99.90
2022-08-01T00:02:40.500Z,99.90
2022-08-01T00:05:09.439Z,99.90
2022-08-01T00:07:37.015Z,99.90
2022-08-01T00:10:09.387Z,99.90
2022-08-01T00:12:36.239Z,99.90
2022-08-01T00:15:04.418Z,99.90
2022-08-01T00:17:31.079Z,99.90
2022-08-01T00:19:57.787Z,99.90
2022-08-01T00:22:24.624Z,99.90
2022-08-01T00:24:51.369Z,99.90
2022-08-01T00:27:18.371Z,99.90
2022-08-01T00:30:12.592Z,99.90
2022-08-01T00:32:32.690Z,99.90
2022-08-01T00:34:59.407Z,99.90
2022-08-01T00:37:26.159Z,99.90
2022-08-01T00:39:52.878Z,99.90
2022-08-01T00:42:19.595Z,99.90
2022-08-01T00:44:46.487Z,99.90
2022-08-01T00:47:13.224Z,99.90
2022-08-01T00:49:40.060Z,99.90
2022-08-01T00:52:07.754Z,99.90
2022-08-01T00:54:34.825Z,99.90
2022-08-01T00:57:01.601Z,99.90
2022-08-01T00:59:28.359Z,99.90
2022-08-01T01:02:01.714Z,99.90
2022-08-01T01:04:28.460Z,99.90
2022-08-01T01:07:17.796Z,99.90
2022-08-01T01:10:01.745Z,99.90
2022-08-01T01:12:49.957Z,99.90
2022-08-01T01:15:27.547Z,99.90
2022-08-01T01:18:04.697Z,99.90
2022-08-01T01:20:39.886Z,99.90
2022-08-01T01:23:21.684Z,99.90
2022-08-01T01:26:22.302Z,99.90
2022-08-01T01:29:20.590Z,99.90
2022-08-01T01:31:57.034Z,99.90
2022-08-01T01:34:24.700Z,99.90
2022-08-01T01:36:54.911Z,99.90
2022-08-01T01:39:22.485Z,99.90
2022-08-01T01:41:49.823Z,99.90
2022-08-01T01:44:17.065Z,99.90
2022-08-01T01:46:44.470Z,99.90
2022-08-01T01:49:12.589Z,99.90
2022-08-01T01:51:42.010Z,99.90
2022-08-01T01:54:16.078Z,99.90
2022-08-01T01:56:52.451Z,99.90
2022-08-01T01:59:25.890Z,99.90
2022-08-01T02:02:08.827Z,99.90
2022-08-01T02:04:43.468Z,99.90
2022-08-01T02:07:13.323Z,99.90
2022-08-01T02:09:42.633Z,99.90
2022-08-01T02:12:12.572Z,99.90
2022-08-01T02:14:43.206Z,99.90
2022-08-01T02:17:13.160Z,99.90
2022-08-01T02:19:40.079Z,99.90
2022-08-01T02:22:21.081Z,99.90
2022-08-01T02:24:53.118Z,99.90
2022-08-01T02:27:26.666Z,99.90
2022-08-01T02:30:02.285Z,99.90
2022-08-01T02:32:40.954Z,99.90
2022-08-01T02:35:12.468Z,99.90
2022-08-01T02:37:44.371Z,99.90
2022-08-01T02:40:14.665Z,99.90
2022-08-01T02:42:46.276Z,99.90
2022-08-01T02:45:14.550Z,99.90
2022-08-01T02:47:43.323Z,99.90
2022-08-01T02:50:13.348Z,99.90
2022-08-01T02:52:42.733Z,99.90
2022-08-01T02:55:11.316Z,99.90
2022-08-01T02:57:52.539Z,99.90
2022-08-01T03:00:25.097Z,99.90
2022-08-01T03:02:55.955Z,99.90
2022-08-01T03:05:24.937Z,99.90
2022-08-01T03:07:53.977Z,99.90
2022-08-01T03:10:22.051Z,99.90
2022-08-01T03:12:51.704Z,99.90
2022-08-01T03:15:19.769Z,99.90
2022-08-01T03:17:47.772Z,99.90
2022-08-01T03:20:17.487Z,99.90
2022-08-01T03:22:46.043Z,99.90
2022-08-01T03:25:15.158Z,99.90
2022-08-01T03:27:44.305Z,99.90
2022-08-01T03:30:12.190Z,99.90
2022-08-01T03:32:39.831Z,99.90
2022-08-01T03:35:07.131Z,99.90
2022-08-01T03:38:13.186Z,99.90
2022-08-01T03:40:37.020Z,99.90
2022-08-01T03:43:08.220Z,99.90
2022-08-01T03:45:41.413Z,99.90
2022-08-01T03:48:14.239Z,99.90
2022-08-01T03:50:43.878Z,99.90
2022-08-01T03:53:11.837Z,99.90
2022-08-01T03:55:42.076Z,99.90
2022-08-01T03:58:10.711Z,99.90
2022-08-01T04:00:40.972Z,99.90
2022-08-01T04:03:11.830Z,99.90
2022-08-01T04:05:41.277Z,99.90
2022-08-01T04:08:08.040Z,99.90
2022-08-01T04:10:35.008Z,99.90
2022-08-01T04:13:01.847Z,99.90
2022-08-01T04:15:28.628Z,99.90
2022-08-01T04:17:55.546Z,99.90
2022-08-01T04:20:22.576Z,99.90
2022-08-01T04:22:49.466Z,99.90
2022-08-01T04:25:26.001Z,99.90
2022-08-01T04:27:55.275Z,99.90
2022-08-01T04:30:28.024Z,99.90
2022-08-01T04:32:58.433Z,99.90
2022-08-01T04:36:03.006Z,99.90
2022-08-01T04:38:18.126Z,99.90
2022-08-01T04:40:47.159Z,99.90
2022-08-01T04:43:15.036Z,99.90
2022-08-01T04:45:44.551Z,99.90
2022-08-01T04:48:11.998Z,99.90
2022-08-01T04:50:38.738Z,99.90
2022-08-01T04:53:06.090Z,99.90
2022-08-01T04:55:32.890Z,99.90
2022-08-01T04:57:59.585Z,99.90
2022-08-01T05:00:27.063Z,99.90
2022-08-01T05:02:53.742Z,99.90
2022-08-01T05:05:21.946Z,99.90
2022-08-01T05:07:48.646Z,99.90
2022-08-01T05:10:15.423Z,99.90
2022-08-01T05:12:42.137Z,99.90
2022-08-01T05:15:14.949Z,99.90
2022-08-01T05:17:45.628Z,99.90
2022-08-01T05:20:12.906Z,99.90
2022-08-01T05:22:39.880Z,99.90
2022-08-01T05:25:07.234Z,99.90
2022-08-01T05:27:38.730Z,99.90
2022-08-01T05:30:07.238Z,99.90
2022-08-01T05:32:33.923Z,99.90
2022-08-01T05:35:00.916Z,99.90
2022-08-01T05:37:27.618Z,99.90
2022-08-01T05:39:54.333Z,99.90
2022-08-01T05:42:21.226Z,99.90
2022-08-01T05:44:48.560Z,99.90
2022-08-01T05:47:15.254Z,99.90
2022-08-01T05:49:41.956Z,99.90
2022-08-01T05:52:09.344Z,99.90
2022-08-01T05:54:36.646Z,99.90
2022-08-01T05:57:03.707Z,99.90
2022-08-01T05:59:30.918Z,99.90
2022-08-01T06:01:58.098Z,99.90
2022-08-01T06:04:25.049Z,99.90
2022-08-01T06:06:51.767Z,99.90
2022-08-01T06:09:18.571Z,99.90
2022-08-01T06:11:45.326Z,99.90
2022-08-01T06:14:12.111Z,99.90
2022-08-01T06:16:38.828Z,99.90
2022-08-01T06:19:05.547Z,99.90
2022-08-01T06:21:32.227Z,99.90
2022-08-01T06:23:58.953Z,99.90
2022-08-01T06:26:25.669Z,99.90
2022-08-01T06:28:52.392Z,99.90
2022-08-01T06:31:19.185Z,99.90
2022-08-01T06:33:45.954Z,99.90
2022-08-01T06:36:12.770Z,99.90
2022-08-01T06:38:39.529Z,99.90
2022-08-01T06:41:06.238Z,99.90
2022-08-01T06:43:32.969Z,99.90
2022-08-01T06:45:59.739Z,99.90
2022-08-01T06:48:27.462Z,99.90
2022-08-01T06:51:08.894Z,99.90
2022-08-01T06:53:39.376Z,99.90
2022-08-01T06:56:07.560Z,99.90
2022-08-01T06:58:35.618Z,99.90
2022-08-01T07:01:04.952Z,99.90
2022-08-01T07:03:54.441Z,99.90
2022-08-01T07:06:18.950Z,99.90
2022-08-01T07:08:45.661Z,99.90
2022-08-01T07:11:12.399Z,99.90
2022-08-01T07:13:43.993Z,99.90
2022-08-01T07:16:13.498Z,99.90
2022-08-01T07:18:40.433Z,99.90
2022-08-01T07:21:07.447Z,99.90
2022-08-01T07:23:55.742Z,99.90
2022-08-01T07:26:22.646Z,99.90
2022-08-01T07:28:49.371Z,99.90
2022-08-01T07:31:16.170Z,99.90
2022-08-01T07:33:48.516Z,99.90
2022-08-01T07:36:17.057Z,99.90
2022-08-01T07:38:44.116Z,99.90
2022-08-01T07:41:11.277Z,99.90
2022-08-01T07:43:38.293Z,99.90
2022-08-01T07:46:05.666Z,99.90
2022-08-01T07:48:32.489Z,99.90
2022-08-01T07:50:59.255Z,99.90
2022-08-01T07:53:26.670Z,99.90
2022-08-01T07:55:53.481Z,99.90
2022-08-01T07:58:20.206Z,99.90
2022-08-01T08:00:47.028Z,99.90
2022-08-01T08:03:13.729Z,99.90
2022-08-01T08:05:58.815Z,99.90
2022-08-01T08:08:27.436Z,99.90
2022-08-01T08:10:54.383Z,99.90
2022-08-01T08:13:21.217Z,99.90
2022-08-01T08:15:48.674Z,99.90
2022-08-01T08:18:15.845Z,99.90
2022-08-01T08:20:42.579Z,99.90
2022-08-01T08:23:42.008Z,99.90
2022-08-01T08:26:11.821Z,99.90
2022-08-01T08:28:38.570Z,99.90
2022-08-01T08:31:07.733Z,99.90
2022-08-01T08:33:52.649Z,99.90
2022-08-01T08:36:19.575Z,99.90
2022-08-01T08:38:46.269Z,99.90
2022-08-01T08:41:17.921Z,99.90
2022-08-01T08:43:47.530Z,99.90
2022-08-01T08:46:15.883Z,99.90
2022-08-01T08:48:43.085Z,99.90
2022-08-01T08:51:12.456Z,99.90
2022-08-01T08:53:44.891Z,99.90
2022-08-01T08:56:14.374Z,99.90
2022-08-01T08:58:46.247Z,99.90
2022-08-01T09:01:13.870Z,99.90
2022-08-01T09:03:41.970Z,99.90
2022-08-01T09:06:08.993Z,99.90
2022-08-01T09:08:36.201Z,99.90
2022-08-01T09:11:03.525Z,99.90
2022-08-01T09:13:30.802Z,99.90
2022-08-01T09:16:00.605Z,99.90
2022-08-01T09:18:41.366Z,99.90
2022-08-01T09:21:15.417Z,99.90
2022-08-01T09:23:53.371Z,99.90
2022-08-01T09:26:23.006Z,99.90
2022-08-01T09:28:51.122Z,99.90
2022-08-01T09:31:19.539Z,99.90
2022-08-01T09:33:59.586Z,99.90
2022-08-01T09:36:43.754Z,99.90
2022-08-01T09:39:16.799Z,99.90
2022-08-01T09:41:43.540Z,99.90
2022-08-01T09:44:10.264Z,99.90
2022-08-01T09:46:37.528Z,99.90
2022-08-01T09:49:07.326Z,99.90
2022-08-01T09:51:58.789Z,99.90
2022-08-01T09:54:34.512Z,99.90
2022-08-01T09:57:14.791Z,99.90
2022-08-01T09:59:57.694Z,99.90
2022-08-01T10:02:40.965Z,99.90
2022-08-01T10:05:11.005Z,99.90
2022-08-01T10:08:02.914Z,99.90
2022-08-01T10:10:34.842Z,99.90
2022-08-01T10:13:05.178Z,99.90
2022-08-01T10:15:36.956Z,99.90
2022-08-01T10:18:16.214Z,99.90
2022-08-01T10:20:53.109Z,99.90
2022-08-01T10:23:39.820Z,99.90
2022-08-01T10:26:08.498Z,99.90
2022-08-01T10:28:39.433Z,99.90
2022-08-01T10:31:13.116Z,99.90
2022-08-01T10:33:50.929Z,99.90
2022-08-01T10:36:22.661Z,98.40
2022-08-01T10:38:50.330Z,98.60
2022-08-01T10:41:19.582Z,97.80
2022-08-01T10:43:47.036Z,94.70
2022-08-01T10:46:14.338Z,94.70
2022-08-01T10:51:18.206Z,93.70
2022-08-01T10:53:54.170Z,94.60
2022-08-01T10:56:26.909Z,95.00
2022-08-01T10:59:06.849Z,95.80
2022-08-01T11:01:43.427Z,94.60
2022-08-01T11:04:17.408Z,94.60
2022-08-01T11:07:03.205Z,93.50
2022-08-01T11:09:39.909Z,93.00
2022-08-01T11:12:13.320Z,92.00
2022-08-01T11:15:08.423Z,92.10
2022-08-01T11:17:43.124Z,91.60
2022-08-01T11:20:14.243Z,92.20
2022-08-01T11:23:00.168Z,92.00
2022-08-01T11:26:03.937Z,92.40
2022-08-01T11:28:36.453Z,92.60
2022-08-01T11:31:11.607Z,92.30
2022-08-01T11:33:45.447Z,92.50
2022-08-01T11:36:55.410Z,91.40
2022-08-01T11:39:13.456Z,91.00
2022-08-01T11:41:41.265Z,91.60
2022-08-01T11:44:26.247Z,91.50
2022-08-01T11:47:08.761Z,90.10
2022-08-01T11:49:41.949Z,90.60
2022-08-01T11:52:16.100Z,91.70
2022-08-01T11:54:49.655Z,91.30
2022-08-01T11:57:34.672Z,91.90
2022-08-01T12:00:15.535Z,91.00
2022-08-01T12:02:46.299Z,89.20
2022-08-01T12:05:16.018Z,87.20
2022-08-01T12:07:45.043Z,88.00
2022-08-01T12:10:17.513Z,86.10
2022-08-01T12:12:52.804Z,81.80
2022-08-01T12:15:21.491Z,83.40
2022-08-01T12:17:59.050Z,84.20
2022-08-01T12:20:32.049Z,81.80
2022-08-01T12:23:04.075Z,78.50
2022-08-01T12:25:30.846Z,78.40
2022-08-01T12:28:04.865Z,79.90
2022-08-01T12:30:36.079Z,78.00
2022-08-01T12:33:05.877Z,80.30
2022-08-01T12:35:33.362Z,81.10
2022-08-01T12:38:03.428Z,84.60
2022-08-01T12:40:33.221Z,80.30
2022-08-01T12:43:03.336Z,79.50
2022-08-01T12:45:33.894Z,81.00
2022-08-01T12:48:01.796Z,78.50
2022-08-01T12:50:32.168Z,76.30
2022-08-01T12:53:00.749Z,76.40
2022-08-01T12:55:34.359Z,77.30
2022-08-01T12:58:15.489Z,77.40
2022-08-01T13:00:45.496Z,76.50
2022-08-01T13:03:17.098Z,76.60
2022-08-01T13:05:49.976Z,78.80
2022-08-01T13:08:19.005Z,78.90
2022-08-01T13:10:46.208Z,79.70
2022-08-01T13:13:22.237Z,81.80
2022-08-01T13:16:05.534Z,81.30
2022-08-01T13:18:33.960Z,83.40
2022-08-01T13:21:23.185Z,83.60
2022-08-01T13:24:04.785Z,82.20
2022-08-01T13:26:54.324Z,81.50
2022-08-01T13:29:24.067Z,80.80
2022-08-01T13:31:50.926Z,81.10
2022-08-01T13:34:17.963Z,79.10
2022-08-01T13:36:49.358Z,77.70
2022-08-01T13:39:55.122Z,78.70
2022-08-01T13:42:21.779Z,79.00
2022-08-01T13:44:48.455Z,79.80
2022-08-01T13:47:16.298Z,80.50
2022-08-01T13:49:44.170Z,78.70
2022-08-01T13:52:11.083Z,78.60
2022-08-01T13:54:37.869Z,79.80
2022-08-01T13:57:04.650Z,80.10
2022-08-01T13:59:31.482Z,78.80
2022-08-01T14:01:58.223Z,77.50
2022-08-01T14:04:25.011Z,75.50
2022-08-01T14:06:51.719Z,74.40
2022-08-01T14:09:24.141Z,75.10
2022-08-01T14:11:51.723Z,76.00
2022-08-01T14:14:18.444Z,75.60
2022-08-01T14:16:45.976Z,75.90
2022-08-01T14:19:13.143Z,77.80
2022-08-01T14:21:39.884Z,77.00
2022-08-01T14:24:07.660Z,76.80
2022-08-01T14:26:34.567Z,74.30
2022-08-01T14:29:03.171Z,74.20
2022-08-01T14:31:34.069Z,74.10
2022-08-01T14:34:01.513Z,74.60
2022-08-01T14:36:31.267Z,76.10
2022-08-01T14:39:00.559Z,75.10
2022-08-01T14:41:28.227Z,76.10
2022-08-01T14:43:55.147Z,75.40
2022-08-01T14:46:21.877Z,76.80
2022-08-01T14:48:48.777Z,75.40
2022-08-01T14:51:15.640Z,74.80
2022-08-01T14:53:46.917Z,74.50
2022-08-01T14:56:18.346Z,72.80
2022-08-01T14:58:45.385Z,69.40
2022-08-01T15:01:12.314Z,66.30
2022-08-01T15:03:39.110Z,65.20
2022-08-01T15:06:07.346Z,64.80
2022-08-01T15:08:34.082Z,65.90
2022-08-01T15:11:02.114Z,65.70
2022-08-01T15:13:28.987Z,67.10
2022-08-01T15:15:59.836Z,66.70
2022-08-01T15:18:28.649Z,66.50
2022-08-01T15:20:55.902Z,67.20
2022-08-01T15:23:22.597Z,67.10
2022-08-01T15:25:49.812Z,67.70
2022-08-01T15:28:16.547Z,67.10
2022-08-01T15:30:43.336Z,68.30
2022-08-01T15:33:10.034Z,66.40
2022-08-01T15:35:36.761Z,66.90
2022-08-01T15:38:03.763Z,67.50
2022-08-01T15:40:34.039Z,67.70
2022-08-01T15:43:00.904Z,68.50
2022-08-01T15:48:14.484Z,68.40
2022-08-01T15:50:41.185Z,69.80
2022-08-01T15:53:08.114Z,69.40
2022-08-01T15:55:39.779Z,68.50
2022-08-01T15:58:07.598Z,66.90
2022-08-01T16:00:39.568Z,67.10
2022-08-01T16:03:10.418Z,66.20
2022-08-01T16:05:43.946Z,67.20
2022-08-01T16:08:14.312Z,65.70
2022-08-01T16:10:41.511Z,66.10
2022-08-01T16:13:08.491Z,65.30
2022-08-01T16:15:37.651Z,64.30
2022-08-01T16:18:09.320Z,65.90
2022-08-01T16:20:40.238Z,64.80
2022-08-01T16:23:11.189Z,65.30
2022-08-01T16:25:38.143Z,65.00
2022-08-01T16:28:05.098Z,66.10
2022-08-01T16:30:31.965Z,64.80
2022-08-01T16:32:59.893Z,63.90
2022-08-01T16:35:36.358Z,66.10
2022-08-01T16:38:04.796Z,66.40
2022-08-01T16:40:46.326Z,64.60
2022-08-01T16:43:19.447Z,65.60
2022-08-01T16:45:46.628Z,69.60
2022-08-01T16:48:15.794Z,69.60
2022-08-01T16:50:42.961Z,69.70
2022-08-01T16:53:09.677Z,70.60
2022-08-01T16:55:49.738Z,71.00
2022-08-01T16:58:27.320Z,69.90
2022-08-01T17:00:57.090Z,69.20
2022-08-01T17:03:46.899Z,69.60
2022-08-01T17:06:11.856Z,69.90
2022-08-01T17:08:46.873Z,70.00
2022-08-01T17:11:15.406Z,71.20
2022-08-01T17:13:42.717Z,70.30
2022-08-01T17:16:10.125Z,71.50
2022-08-01T17:18:36.935Z,72.60
2022-08-01T17:21:03.733Z,72.30
2022-08-01T17:23:31.810Z,72.60
2022-08-01T17:25:59.537Z,72.70
2022-08-01T17:28:26.687Z,72.60
2022-08-01T17:30:53.393Z,72.20
2022-08-01T17:33:20.622Z,72.40
2022-08-01T17:35:47.390Z,72.00
2022-08-01T17:38:14.229Z,72.60
2022-08-01T17:40:41.330Z,72.80
2022-08-01T17:43:08.655Z,73.30
2022-08-01T17:45:39.325Z,73.20
2022-08-01T17:48:17.888Z,73.60
2022-08-01T17:50:46.806Z,74.50
2022-08-01T17:53:14.980Z,73.90
2022-08-01T17:55:55.735Z,74.60
2022-08-01T17:58:49.739Z,75.00
2022-08-01T18:01:11.362Z,74.40
2022-08-01T18:03:41.229Z,75.60
2022-08-01T18:06:09.225Z,76.40
2022-08-01T18:08:36.366Z,76.60
2022-08-01T18:11:03.295Z,77.50
2022-08-01T18:13:30.140Z,77.70
2022-08-01T18:15:57.630Z,78.10
2022-08-01T18:18:33.338Z,78.10
2022-08-01T18:21:01.834Z,78.40
2022-08-01T18:23:28.803Z,79.10
2022-08-01T18:25:55.589Z,79.60
2022-08-01T18:28:32.890Z,80.30
2022-08-01T18:31:03.547Z,80.80
2022-08-01T18:33:30.375Z,82.40
2022-08-01T18:36:01.919Z,84.20
2022-08-01T18:38:32.338Z,84.30
2022-08-01T18:41:01.012Z,85.00
2022-08-01T18:43:28.105Z,85.10
2022-08-01T18:45:57.181Z,86.80
2022-08-01T18:48:24.441Z,87.30
2022-08-01T18:50:51.450Z,86.90
2022-08-01T18:53:18.885Z,87.10
2022-08-01T18:55:45.723Z,88.30
2022-08-01T18:58:12.579Z,88.30
2022-08-01T19:00:40.015Z,88.80
2022-08-01T19:03:07.750Z,89.80
2022-08-01T19:05:36.099Z,90.30
2022-08-01T19:08:06.383Z,90.80
2022-08-01T19:10:40.494Z,91.70
2022-08-01T19:13:08.126Z,92.80
2022-08-01T19:15:35.492Z,93.30
2022-08-01T19:18:03.183Z,94.60
2022-08-01T19:20:30.503Z,94.80
2022-08-01T19:22:57.601Z,95.70
2022-08-01T19:25:24.451Z,95.90
2022-08-01T19:27:51.352Z,96.60
2022-08-01T19:30:19.521Z,97.40
2022-08-01T19:32:47.530Z,97.90
2022-08-01T19:35:16.914Z,99.20
2022-08-01T19:37:47.071Z,99.30
2022-08-01T19:40:26.698Z,99.90
2022-08-01T19:42:55.431Z,99.90
2022-08-01T19:45:22.653Z,99.90
2022-08-01T19:47:56.281Z,99.90
2022-08-01T19:50:28.198Z,99.90
2022-08-01T19:52:57.643Z,99.90
2022-08-01T19:55:25.285Z,99.90
2022-08-01T20:00:41.257Z,99.90
2022-08-01T20:03:09.535Z,99.90
2022-08-01T20:05:37.364Z,99.90
2022-08-01T20:08:06.561Z,99.90
2022-08-01T20:10:34.241Z,99.90
2022-08-01T20:13:02.277Z,99.90
2022-08-01T20:15:29.988Z,99.90
2022-08-01T20:18:00.652Z,99.90
2022-08-01T20:20:28.082Z,99.90
2022-08-01T20:22:57.243Z,99.90
2022-08-01T20:25:32.095Z,99.90
2022-08-01T20:28:09.925Z,99.90
2022-08-01T20:30:37.827Z,99.90
2022-08-01T20:33:06.824Z,99.90
2022-08-01T20:35:52.030Z,99.90
2022-08-01T20:38:23.087Z,99.90
2022-08-01T20:40:53.140Z,99.90
2022-08-01T20:43:21.697Z,99.90
2022-08-01T20:45:50.341Z,99.90
2022-08-01T20:48:17.907Z,99.90
2022-08-01T20:51:04.901Z,99.90
2022-08-01T20:53:40.686Z,99.90
2022-08-01T20:56:26.359Z,99.90
2022-08-01T20:59:08.360Z,99.90
2022-08-01T21:01:44.207Z,99.90
2022-08-01T21:04:13.680Z,99.90
2022-08-01T21:06:51.690Z,99.90
2022-08-01T21:09:22.674Z,99.90
2022-08-01T21:11:54.583Z,99.90
2022-08-01T21:14:23.032Z,99.90
2022-08-01T21:16:59.904Z,99.90
2022-08-01T21:19:28.030Z,99.90
2022-08-01T21:22:19.388Z,99.90
2022-08-01T21:24:59.562Z,99.90
2022-08-01T21:27:32.843Z,99.90
2022-08-01T21:30:02.476Z,99.90
2022-08-01T21:32:33.068Z,99.90
2022-08-01T21:35:01.780Z,99.90
2022-08-01T21:37:30.373Z,99.90
2022-08-01T21:39:59.420Z,99.90
2022-08-01T21:42:28.603Z,99.90
2022-08-01T21:45:01.862Z,99.90
2022-08-01T21:47:30.028Z,99.90
2022-08-01T21:50:02.287Z,99.90
2022-08-01T21:52:41.830Z,99.90
2022-08-01T21:55:35.633Z,99.90
2022-08-01T21:58:32.045Z,99.90
2022-08-01T22:01:22.535Z,99.90
2022-08-01T22:03:53.259Z,99.90
2022-08-01T22:06:22.536Z,99.90
2022-08-01T22:08:53.989Z,99.90
2022-08-01T22:11:25.103Z,99.90
2022-08-01T22:13:59.993Z,99.90
2022-08-01T22:16:27.302Z,99.90
2022-08-01T22:18:54.520Z,99.90
2022-08-01T22:21:21.625Z,99.90
2022-08-01T22:23:52.087Z,99.90
2022-08-01T22:26:27.094Z,99.90
2022-08-01T22:28:56.432Z,99.90
2022-08-01T22:31:23.697Z,99.90
2022-08-01T22:33:51.236Z,99.90
2022-08-01T22:36:19.594Z,99.90
2022-08-01T22:38:46.429Z,99.90
2022-08-01T22:41:17.879Z,99.90
2022-08-01T22:44:08.509Z,99.90
2022-08-01T22:47:00.479Z,99.90
2022-08-01T22:49:48.255Z,99.90
2022-08-01T22:52:19.811Z,99.90
2022-08-01T22:54:51.326Z,99.90
2022-08-01T22:57:29.803Z,99.90
2022-08-01T23:00:04.883Z,99.90
2022-08-01T23:02:36.350Z,99.90
2022-08-01T23:05:08.044Z,99.90
2022-08-01T23:07:39.921Z,99.90
2022-08-01T23:10:07.934Z,99.90
2022-08-01T23:12:34.917Z,99.90
2022-08-01T23:15:02.039Z,99.90
2022-08-01T23:17:31.368Z,99.90
2022-08-01T23:20:01.569Z,99.90
2022-08-01T23:22:34.268Z,99.90
2022-08-01T23:25:07.081Z,99.90
2022-08-01T23:27:54.284Z,99.90
2022-08-01T23:30:29.960Z,99.90
2022-08-01T23:32:57.541Z,99.90
2022-08-01T23:35:25.419Z,99.90
2022-08-01T23:37:52.895Z,99.90
2022-08-01T23:40:20.262Z,99.90
2022-08-01T23:42:47.122Z,99.90
2022-08-01T23:45:14.040Z,99.90
2022-08-01T23:47:40.767Z,99.90
2022-08-01T23:50:08.195Z,99.90
2022-08-01T23:52:39.545Z,99.90
2022-08-01T23:55:15.696Z,99.90
2022-08-01T23:57:43.174Z,99.90
